Buffalo Niagara International Airport
KBUF : now visible

Airfield :











YOU CAN JOIN US ON...

 
LOGIN :

Register | Disclaimer

   EN    FR    IT 

 









Legend :    VFR   Marginal VFR   IFR   Intensive IFR   Very Intensive IFR
Visi :
Ceiling :
>= 8 km
>= 3000ft
5 to 8 km
1000 to 3000 ft
1500m to 5 km
500 to 1000 ft
800 to 1500m
200 to 500 ft
< 800m
< 200 ft
Symbols :   Thunderstorms  Fog  Heavy snow  Heavy precipitations  Wind > 20 kt






- Airport Elevation : 728 ft
- IATA code : BUF


KBUF - Buffalo Niagara International

CURRENT METAR :
  • 120254Z 25009KT 10SM FEW025 M07/M14 A3048 RMK AO2 SLP336 T10721144 $

EXPIRED METARs :
  • 120154Z 27007KT 10SM FEW025 M07/M14 A3047 RMK AO2 SLP331 T10721139 $
  • 120054Z 27008KT 10SM FEW025 M07/M13 A3044 RMK AO2 SLP320 T10671133

TAF KBUF
Valid from the 12 at 00:00 until the 13 at 00:00 UTC


112337Z 1200/1224 27017G22KT P6SM SCT025
FM120800 26005KT P6SM SKC
FM121400 VRB03KT P6SM SCT015
FM121600 19005KT P6SM SCT025 BKN035
FM122000 18006KT P6SM BKN120



MET'MAP, your aeronautical weather chart ! - Copyright ORBIFLY December 2007 - Disclaimer

ORBIFLY MET'MAP TEAM :

Programming & Development : Alexandra Zaïnal
Concept & original design : Baudouin d'Aumeries
Assistance for programming : Marc-Olivier Méhu
Technical & hardware support : Manuel Goepfert

Contact : metmap@orbifly.com




SOURCES & CREDITS :

   NOAA       Earth
Advisory